Time;durP1;ratioP1;P1;durP2;ratioP2;P2;SDS_P1;SDS_P2;PMS_P1;PMS_P2;Temp;Humidity;BMP_temperature;BMP_pressure;BME280_temperature;BME280_humidity;BME280_pressure;Samples;Min_cycle;Max_cycle;Signal;HPM_P1;HPM_P2
2023/11/09 00:00:57;;;;;;;5.07;3.60;;;8.50;99.90;;;;;;5118212;28;20551;-65
2023/11/09 00:03:24;;;;;;;4.50;3.33;;;8.50;99.90;;;;;;5118186;28;20451;-63
2023/11/09 00:05:51;;;;;;;7.60;3.60;;;8.50;99.90;;;;;;5118838;28;20457;-66
2023/11/09 00:08:18;;;;;;;3.43;3.13;;;8.50;99.90;;;;;;5118402;28;20543;-64
2023/11/09 00:10:45;;;;;;;5.23;3.50;;;8.50;99.90;;;;;;5118200;28;20466;-66
2023/11/09 00:13:13;;;;;;;5.00;3.43;;;8.60;99.90;;;;;;5118203;28;20460;-66
2023/11/09 00:15:40;;;;;;;9.30;3.70;;;8.60;99.90;;;;;;5118170;28;20455;-64
2023/11/09 00:18:08;;;;;;;4.37;3.07;;;8.60;99.90;;;;;;5118064;28;20489;-63
2023/11/09 00:20:36;;;;;;;3.90;3.50;;;8.60;99.90;;;;;;5118598;28;20778;-63
2023/11/09 00:23:03;;;;;;;5.30;3.30;;;8.60;99.90;;;;;;5118517;28;20520;-65
2023/11/09 00:25:30;;;;;;;4.80;3.53;;;8.60;99.90;;;;;;5118172;28;20465;-66
2023/11/09 00:27:58;;;;;;;4.67;3.20;;;8.60;99.90;;;;;;5118278;28;20473;-66
2023/11/09 00:30:25;;;;;;;4.87;3.33;;;8.60;99.90;;;;;;5116780;28;20466;-66
2023/11/09 00:32:53;;;;;;;6.63;3.80;;;8.60;99.90;;;;;;5117598;28;20536;-65
2023/11/09 00:35:21;;;;;;;4.40;3.47;;;8.60;99.90;;;;;;5118088;28;20743;-64
2023/11/09 00:37:48;;;;;;;5.53;3.13;;;8.60;99.90;;;;;;5117618;28;20470;-64
2023/11/09 00:40:16;;;;;;;4.97;3.60;;;8.60;99.90;;;;;;5117694;28;20550;-65
2023/11/09 00:42:43;;;;;;;4.87;3.10;;;8.60;99.90;;;;;;5118201;28;20460;-66
2023/11/09 00:45:11;;;;;;;3.83;3.43;;;8.60;99.90;;;;;;5118627;28;20459;-64
2023/11/09 00:47:38;;;;;;;3.30;2.80;;;8.60;99.90;;;;;;5118079;28;20455;-64
2023/11/09 00:50:06;;;;;;;4.37;3.50;;;8.60;99.90;;;;;;5117432;28;20451;-63
2023/11/09 00:52:35;;;;;;;4.60;4.10;;;8.60;99.90;;;;;;5117975;28;20949;-64
2023/11/09 00:55:02;;;;;;;4.03;3.30;;;8.50;99.90;;;;;;5117805;28;20558;-63
2023/11/09 00:57:31;;;;;;;5.40;3.60;;;8.60;99.90;;;;;;5118005;28;20494;-64
2023/11/09 00:59:58;;;;;;;6.40;3.40;;;8.50;99.90;;;;;;5118362;28;20803;-65
2023/11/09 01:02:26;;;;;;;3.90;3.40;;;8.60;99.90;;;;;;5117962;28;20462;-65
2023/11/09 01:04:53;;;;;;;6.10;3.37;;;8.60;99.90;;;;;;5117802;28;20462;-65
2023/11/09 01:07:20;;;;;;;4.10;2.87;;;8.50;99.90;;;;;;5118238;28;20827;-64
2023/11/09 01:09:49;;;;;;;4.47;3.70;;;8.50;99.90;;;;;;5121173;28;20429;-62
2023/11/09 01:12:17;;;;;;;5.00;3.30;;;8.50;99.90;;;;;;5121548;28;20466;-63
2023/11/09 01:14:44;;;;;;;4.17;3.47;;;8.50;99.90;;;;;;5121563;28;20459;-63
2023/11/09 01:17:11;;;;;;;6.13;3.77;;;8.50;99.90;;;;;;5122130;28;20544;-63
2023/11/09 01:19:38;;;;;;;5.00;3.37;;;8.50;99.90;;;;;;5122198;28;20524;-64
2023/11/09 01:22:06;;;;;;;10.13;4.03;;;8.50;99.90;;;;;;5121283;28;20455;-63
2023/11/09 01:24:33;;;;;;;5.20;3.40;;;8.50;99.90;;;;;;5121964;28;20436;-64
2023/11/09 01:27:02;;;;;;;4.30;3.57;;;8.50;99.90;;;;;;5121759;28;20458;-65
2023/11/09 01:29:29;;;;;;;9.67;3.10;;;8.50;99.90;;;;;;5121756;28;20838;-66
2023/11/09 01:31:57;;;;;;;5.10;3.50;;;8.50;99.90;;;;;;5121705;28;20455;-65
2023/11/09 01:34:25;;;;;;;6.20;3.90;;;8.50;99.90;;;;;;5121398;28;20463;-67
2023/11/09 01:36:53;;;;;;;4.23;3.83;;;8.50;99.90;;;;;;5124455;28;20916;-67
2023/11/09 01:39:22;;;;;;;5.10;3.60;;;8.50;99.90;;;;;;5123816;28;20486;-68
2023/11/09 01:41:50;;;;;;;5.87;3.00;;;8.50;99.90;;;;;;5122528;28;20545;-67
2023/11/09 01:44:21;;;;;;;4.40;3.67;;;8.50;99.90;;;;;;5121249;28;20456;-66
2023/11/09 01:46:53;;;;;;;6.70;4.03;;;8.50;99.90;;;;;;5121419;28;20884;-66
2023/11/09 01:49:21;;;;;;;4.20;3.43;;;8.50;99.90;;;;;;5120993;28;20906;-69
2023/11/09 01:51:54;;;;;;;4.47;3.20;;;8.40;99.90;;;;;;5120208;28;20911;-69
2023/11/09 01:54:23;;;;;;;5.00;3.33;;;8.40;99.90;;;;;;5120548;28;20459;-68
2023/11/09 01:56:50;;;;;;;3.93;3.50;;;8.50;99.90;;;;;;5120291;28;20494;-64
2023/11/09 01:59:19;;;;;;;4.53;3.70;;;8.50;99.90;;;;;;5120384;28;20477;-67
2023/11/09 02:01:52;;;;;;;7.37;4.47;;;8.50;99.90;;;;;;5120390;28;20574;-67
2023/11/09 02:04:20;;;;;;;6.07;3.67;;;8.50;99.90;;;;;;5120351;28;20456;-66
2023/11/09 02:06:50;;;;;;;4.57;3.70;;;8.50;99.90;;;;;;5120368;28;20455;-69
2023/11/09 02:09:18;;;;;;;4.90;3.80;;;8.50;99.90;;;;;;5120268;28;20459;-67
2023/11/09 02:11:46;;;;;;;7.83;3.37;;;8.50;99.90;;;;;;5120378;28;20495;-68
2023/11/09 02:14:14;;;;;;;6.47;4.07;;;8.50;99.90;;;;;;5120153;28;20460;-65
2023/11/09 02:17:31;;;;;;;7.30;5.30;;;8.50;99.90;;;;;;5120468;28;20483;-69
2023/11/09 02:20:01;;;;;;;5.13;3.17;;;8.50;99.90;;;;;;5119009;28;20522;-67
2023/11/09 02:22:28;;;;;;;4.83;4.20;;;8.50;99.90;;;;;;5119354;28;20884;-65
2023/11/09 02:24:58;;;;;;;5.13;3.70;;;8.50;99.90;;;;;;5120553;28;20455;-64
2023/11/09 02:27:25;;;;;;;4.80;3.80;;;8.60;99.90;;;;;;5121203;28;20447;-66
2023/11/09 02:29:53;;;;;;;4.50;3.60;;;8.50;99.90;;;;;;5121069;28;20456;-65
2023/11/09 02:32:20;;;;;;;5.87;3.63;;;8.50;99.90;;;;;;5120737;28;20455;-67
2023/11/09 02:34:49;;;;;;;5.53;3.63;;;8.50;99.90;;;;;;5121096;28;20466;-66
2023/11/09 02:37:19;;;;;;;8.20;4.20;;;8.50;99.90;;;;;;5120048;28;20487;-66
2023/11/09 02:39:52;;;;;;;4.23;3.80;;;8.50;99.90;;;;;;5120434;28;20495;-66
2023/11/09 02:42:22;;;;;;;4.60;3.77;;;8.50;99.90;;;;;;5120016;28;20459;-67
2023/11/09 02:44:49;;;;;;;4.93;3.40;;;8.50;99.90;;;;;;5120438;28;20622;-67
2023/11/09 02:47:16;;;;;;;6.83;3.70;;;8.50;99.90;;;;;;5120509;28;20903;-64
2023/11/09 02:49:43;;;;;;;5.77;4.03;;;8.50;99.90;;;;;;5120245;28;20456;-64
2023/11/09 02:52:10;;;;;;;4.50;3.73;;;8.50;99.90;;;;;;5120248;28;20550;-66
2023/11/09 02:54:38;;;;;;;4.30;3.67;;;8.50;99.90;;;;;;5120412;28;20455;-68
2023/11/09 02:57:06;;;;;;;6.40;3.63;;;8.50;99.90;;;;;;5119628;28;20545;-63
2023/11/09 02:59:34;;;;;;;6.40;4.70;;;8.50;99.90;;;;;;5120056;28;20456;-66
2023/11/09 03:02:01;;;;;;;6.30;3.93;;;8.50;99.90;;;;;;5120206;28;20422;-67
2023/11/09 03:04:29;;;;;;;4.73;3.80;;;8.50;99.90;;;;;;5131717;27;20446;-67
2023/11/09 03:06:56;;;;;;;5.53;3.73;;;8.50;99.90;;;;;;5142267;27;20572;-69
2023/11/09 03:09:23;;;;;;;5.90;4.20;;;8.50;99.90;;;;;;5143609;27;20455;-67
2023/11/09 03:11:50;;;;;;;6.03;4.03;;;8.50;99.90;;;;;;5142642;27;20462;-67
2023/11/09 03:14:17;;;;;;;4.23;3.30;;;8.50;99.90;;;;;;5141715;27;20510;-67
2023/11/09 03:16:46;;;;;;;8.70;3.10;;;8.50;99.90;;;;;;5140449;27;20759;-68
2023/11/09 03:19:13;;;;;;;4.40;3.33;;;8.50;99.90;;;;;;5139436;27;20536;-67
2023/11/09 03:21:40;;;;;;;3.90;3.30;;;8.60;99.90;;;;;;5139983;27;20458;-68
2023/11/09 03:24:08;;;;;;;5.43;3.20;;;8.60;99.90;;;;;;5140371;27;20466;-70
2023/11/09 03:26:37;;;;;;;5.40;3.80;;;8.60;99.90;;;;;;5139327;27;20459;-68
2023/11/09 03:29:05;;;;;;;4.23;3.40;;;8.60;99.90;;;;;;5139561;27;20462;-70
2023/11/09 03:31:32;;;;;;;4.13;3.10;;;8.60;99.90;;;;;;5139326;27;20515;-68
2023/11/09 03:34:00;;;;;;;3.67;2.97;;;8.60;99.90;;;;;;5139668;27;20880;-66
2023/11/09 03:36:28;;;;;;;6.40;2.80;;;8.60;99.90;;;;;;5139485;27;20737;-70
2023/11/09 03:38:56;;;;;;;4.77;3.50;;;8.60;99.90;;;;;;5138982;27;20534;-68
2023/11/09 03:41:23;;;;;;;6.03;3.10;;;8.70;99.90;;;;;;5139377;27;20455;-69
2023/11/09 03:43:51;;;;;;;3.90;3.20;;;8.70;99.90;;;;;;5139405;27;20505;-70
2023/11/09 03:46:21;;;;;;;3.77;2.70;;;8.70;99.90;;;;;;5139081;27;20515;-71
2023/11/09 03:48:48;;;;;;;4.03;3.63;;;8.70;99.90;;;;;;5138965;27;20462;-71
2023/11/09 03:51:17;;;;;;;4.00;2.93;;;8.70;99.90;;;;;;5139571;27;20454;-71
2023/11/09 03:53:44;;;;;;;4.77;3.30;;;8.70;99.90;;;;;;5139478;27;20458;-66
2023/11/09 03:56:11;;;;;;;3.57;3.20;;;8.70;99.90;;;;;;5139159;27;20745;-67
2023/11/09 03:58:38;;;;;;;4.63;2.93;;;8.70;99.90;;;;;;5138849;27;20543;-68
2023/11/09 04:01:05;;;;;;;4.00;3.50;;;8.70;99.90;;;;;;5138796;27;20818;-68
2023/11/09 04:03:32;;;;;;;4.10;3.50;;;8.70;99.90;;;;;;5138762;27;20465;-70
2023/11/09 04:05:59;;;;;;;3.70;3.20;;;8.70;99.90;;;;;;5138203;27;20901;-67
2023/11/09 04:08:28;;;;;;;3.90;3.40;;;8.70;99.90;;;;;;5137054;27;20459;-63
2023/11/09 04:10:55;;;;;;;5.40;3.27;;;8.70;99.90;;;;;;5137774;27;20762;-68
2023/11/09 04:13:22;;;;;;;4.77;3.57;;;8.70;99.90;;;;;;5137435;27;20477;-68
2023/11/09 04:15:49;;;;;;;4.40;3.47;;;8.70;99.90;;;;;;5136655;27;20454;-70
2023/11/09 04:18:17;;;;;;;4.60;2.77;;;8.70;99.90;;;;;;5136831;27;20931;-70
2023/11/09 04:20:44;;;;;;;5.53;3.20;;;8.70;99.90;;;;;;5136735;27;20459;-68
2023/11/09 04:23:11;;;;;;;4.47;3.23;;;8.70;99.90;;;;;;5139590;27;20469;-68
2023/11/09 04:25:39;;;;;;;5.53;3.20;;;8.70;99.90;;;;;;5138696;27;20461;-68
2023/11/09 04:28:08;;;;;;;5.17;3.13;;;8.70;99.90;;;;;;5141106;27;20514;-69
2023/11/09 04:30:36;;;;;;;3.73;2.80;;;8.70;99.90;;;;;;5139876;27;20868;-70
2023/11/09 04:33:09;;;;;;;3.87;3.13;;;8.70;99.90;;;;;;5139009;27;20459;-69
2023/11/09 04:35:36;;;;;;;5.20;2.90;;;8.70;99.90;;;;;;5139092;27;20491;-69
2023/11/09 04:38:04;;;;;;;3.17;2.60;;;8.70;99.90;;;;;;5138228;27;20766;-69
2023/11/09 04:40:31;;;;;;;3.67;2.67;;;8.70;99.90;;;;;;5138176;28;20459;-69
2023/11/09 04:43:01;;;;;;;4.40;3.50;;;8.70;99.90;;;;;;5136812;27;20497;-67
2023/11/09 04:45:29;;;;;;;4.17;2.80;;;8.70;99.90;;;;;;5138603;28;20895;-70
2023/11/09 04:47:58;;;;;;;5.40;3.00;;;8.70;99.90;;;;;;5139400;28;20820;-67
2023/11/09 04:50:30;;;;;;;3.97;2.93;;;8.80;99.90;;;;;;5139032;28;20454;-67
2023/11/09 04:53:04;;;;;;;5.50;2.70;;;8.80;99.90;;;;;;5139007;28;20466;-67
2023/11/09 04:55:43;;;;;;;4.20;2.50;;;8.70;99.90;;;;;;5139121;28;20437;-68
2023/11/09 05:09:08;;;;;;;3.87;3.00;;;8.70;99.90;;;;;;5140605;28;20475;-65
2023/11/09 05:11:35;;;;;;;7.47;3.47;;;8.70;99.90;;;;;;5140064;28;20842;-66
2023/11/09 05:14:05;;;;;;;4.40;3.40;;;8.70;99.90;;;;;;5140322;28;20741;-68
2023/11/09 05:16:32;;;;;;;4.50;3.50;;;8.60;99.90;;;;;;5139224;28;20462;-64
2023/11/09 05:18:59;;;;;;;6.37;3.63;;;8.60;99.90;;;;;;5138809;28;20487;-67
2023/11/09 05:21:26;;;;;;;5.00;3.23;;;8.70;99.90;;;;;;5138678;28;20850;-65
2023/11/09 05:23:54;;;;;;;3.80;3.20;;;8.70;99.90;;;;;;5139445;28;20758;-66
2023/11/09 05:26:25;;;;;;;4.90;3.40;;;8.60;99.90;;;;;;5139418;28;20530;-67
2023/11/09 05:28:52;;;;;;;4.60;3.10;;;8.70;99.90;;;;;;5138938;28;20872;-66
2023/11/09 05:31:20;;;;;;;3.47;2.70;;;8.70;99.90;;;;;;5139913;28;20468;-69
2023/11/09 05:33:48;;;;;;;5.40;3.20;;;8.70;99.90;;;;;;5141509;28;20765;-68
2023/11/09 05:36:16;;;;;;;5.10;3.90;;;8.60;99.90;;;;;;5139322;28;20549;-68
2023/11/09 05:38:44;;;;;;;4.20;2.80;;;8.70;99.90;;;;;;5138619;28;20495;-66
2023/11/09 05:41:11;;;;;;;3.90;3.17;;;8.60;99.90;;;;;;5138387;28;20946;-67
2023/11/09 05:43:38;;;;;;;5.00;3.60;;;8.60;99.90;;;;;;5139618;28;20454;-68
2023/11/09 05:46:05;;;;;;;4.37;2.97;;;8.70;99.90;;;;;;5139056;28;20454;-68
2023/11/09 05:48:34;;;;;;;4.00;3.20;;;8.70;99.90;;;;;;5139184;28;20447;-66
2023/11/09 05:51:02;;;;;;;4.20;3.00;;;8.70;99.90;;;;;;5138716;28;20500;-66
2023/11/09 05:53:29;;;;;;;4.10;3.60;;;8.70;99.90;;;;;;5138590;28;20455;-66
2023/11/09 05:55:56;;;;;;;6.10;3.87;;;8.60;99.90;;;;;;5142491;27;20450;-67
2023/11/09 05:58:24;;;;;;;4.30;3.40;;;8.70;99.90;;;;;;5142971;27;20495;-67
2023/11/09 06:00:52;;;;;;;5.53;2.93;;;8.70;99.90;;;;;;5141744;27;20454;-69
2023/11/09 06:03:19;;;;;;;4.07;3.17;;;8.70;99.90;;;;;;5145712;27;20897;-68
2023/11/09 06:05:48;;;;;;;4.07;3.00;;;8.70;99.90;;;;;;5152365;27;20763;-69
2023/11/09 06:08:18;;;;;;;4.90;2.73;;;8.70;99.90;;;;;;5141923;27;20490;-67
2023/11/09 06:10:47;;;;;;;4.80;3.40;;;8.70;99.90;;;;;;5141529;27;20458;-66
2023/11/09 06:13:14;;;;;;;3.80;3.30;;;8.70;99.90;;;;;;5142903;27;20468;-68
2023/11/09 06:15:42;;;;;;;4.33;2.97;;;8.70;99.90;;;;;;5141816;27;20455;-66
2023/11/09 06:18:10;;;;;;;5.97;3.17;;;8.70;99.90;;;;;;5141553;27;20497;-68
2023/11/09 06:20:38;;;;;;;5.37;3.00;;;8.60;99.90;;;;;;5141883;27;20508;-66
2023/11/09 06:23:07;;;;;;;6.87;4.00;;;8.70;99.90;;;;;;5141712;27;20450;-66
2023/11/09 06:25:34;;;;;;;3.90;3.20;;;8.60;99.90;;;;;;5142040;27;20969;-67
2023/11/09 06:28:02;;;;;;;3.60;2.70;;;8.60;99.90;;;;;;5141080;27;20499;-67
2023/11/09 06:30:30;;;;;;;4.63;3.00;;;8.60;99.90;;;;;;5140387;27;20450;-66
2023/11/09 06:32:58;;;;;;;6.13;3.13;;;8.60;99.90;;;;;;5141129;27;20454;-67
2023/11/09 06:35:25;;;;;;;4.40;2.90;;;8.60;99.90;;;;;;5141775;27;20458;-67
2023/11/09 06:37:52;;;;;;;5.60;3.60;;;8.60;99.90;;;;;;5140836;27;20501;-67
2023/11/09 06:40:21;;;;;;;4.20;3.10;;;8.60;99.90;;;;;;5141331;27;20744;-67
2023/11/09 06:42:49;;;;;;;4.83;3.07;;;8.60;99.90;;;;;;5140665;27;20954;-66
2023/11/09 06:45:17;;;;;;;3.90;3.10;;;8.60;99.90;;;;;;5140263;27;20507;-66
2023/11/09 06:47:45;;;;;;;4.77;3.43;;;8.60;99.90;;;;;;5139811;27;20455;-66
2023/11/09 06:50:12;;;;;;;4.77;2.87;;;8.60;99.90;;;;;;5139219;27;20558;-66
2023/11/09 06:52:41;;;;;;;5.53;3.53;;;8.60;99.90;;;;;;5138996;27;20538;-67
2023/11/09 06:55:10;;;;;;;8.43;2.97;;;8.60;99.90;;;;;;5139311;27;20486;-63
2023/11/09 06:57:39;;;;;;;4.10;3.40;;;8.60;99.90;;;;;;5139783;27;20458;-67
2023/11/09 07:00:10;;;;;;;3.70;3.30;;;8.60;99.90;;;;;;5140302;27;20459;-67
2023/11/09 07:02:38;;;;;;;3.37;2.63;;;8.60;99.90;;;;;;5140387;27;20899;-67
2023/11/09 07:05:06;;;;;;;4.93;3.47;;;8.60;99.90;;;;;;5140243;27;20459;-67
2023/11/09 07:07:33;;;;;;;5.87;3.30;;;8.60;99.90;;;;;;5140191;27;20570;-67
2023/11/09 07:10:01;;;;;;;3.20;2.73;;;8.60;99.90;;;;;;5140396;27;20469;-67
2023/11/09 07:12:28;;;;;;;3.70;2.97;;;8.60;99.90;;;;;;5140539;27;20461;-68
2023/11/09 07:14:57;;;;;;;3.90;2.80;;;8.60;99.90;;;;;;5140066;27;20514;-66
2023/11/09 07:17:24;;;;;;;5.23;3.17;;;8.60;99.90;;;;;;5140076;27;20730;-68
2023/11/09 07:19:51;;;;;;;4.77;3.00;;;8.60;99.90;;;;;;5140337;27;20492;-67
2023/11/09 07:22:21;;;;;;;3.80;2.40;;;8.60;99.90;;;;;;5140748;27;20533;-68
2023/11/09 07:24:52;;;;;;;3.63;2.60;;;8.70;99.90;;;;;;5140557;27;20875;-68
2023/11/09 07:27:20;;;;;;;3.83;2.47;;;8.60;99.90;;;;;;5140357;27;20724;-68
2023/11/09 07:29:47;;;;;;;3.80;2.50;;;8.60;99.90;;;;;;5140479;27;20709;-67
2023/11/09 07:32:16;;;;;;;5.47;2.53;;;8.60;99.90;;;;;;5140227;27;20447;-68
2023/11/09 07:34:43;;;;;;;3.47;2.43;;;8.70;99.90;;;;;;5140335;27;20888;-66
2023/11/09 07:37:13;;;;;;;3.70;2.60;;;8.70;99.90;;;;;;5136803;27;20458;-67
2023/11/09 07:39:42;;;;;;;4.33;2.40;;;8.60;99.90;;;;;;5137807;27;20498;-63
2023/11/09 07:42:09;;;;;;;3.60;2.80;;;8.60;99.90;;;;;;5138536;27;20454;-68
2023/11/09 07:44:37;;;;;;;4.80;2.40;;;8.60;99.90;;;;;;5138162;27;20459;-66
2023/11/09 07:47:05;;;;;;;3.33;2.90;;;8.60;99.90;;;;;;5137846;27;20462;-69
2023/11/09 07:49:34;;;;;;;4.50;2.87;;;8.60;99.90;;;;;;5138297;27;20519;-71
2023/11/09 07:52:03;;;;;;;4.53;2.83;;;8.60;99.90;;;;;;5138877;27;20461;-67
2023/11/09 07:54:31;;;;;;;3.97;2.50;;;8.70;99.90;;;;;;5138666;27;20906;-66
2023/11/09 07:57:01;;;;;;;3.33;2.43;;;8.70;99.90;;;;;;5140228;27;20463;-67
2023/11/09 07:59:28;;;;;;;5.10;2.63;;;8.70;99.90;;;;;;5140011;27;20482;-66
2023/11/09 08:01:56;;;;;;;4.50;2.67;;;8.70;99.90;;;;;;5140084;27;20455;-62
2023/11/09 08:04:27;;;;;;;2.80;2.00;;;8.70;99.90;;;;;;5139486;27;20462;-68
2023/11/09 08:06:56;;;;;;;2.50;1.80;;;8.60;99.90;;;;;;5139609;27;20484;-66
2023/11/09 08:09:23;;;;;;;4.50;2.80;;;8.70;99.90;;;;;;5139977;27;20459;-67
2023/11/09 08:11:50;;;;;;;3.10;1.87;;;8.70;99.90;;;;;;5140437;27;20455;-67
2023/11/09 08:14:17;;;;;;;3.63;2.30;;;8.70;99.90;;;;;;5139354;27;20879;-67
2023/11/09 08:16:45;;;;;;;5.10;2.13;;;8.70;99.90;;;;;;5139242;27;20910;-66
2023/11/09 08:19:12;;;;;;;4.23;2.10;;;8.70;99.90;;;;;;5137942;27;20483;-67
2023/11/09 08:21:40;;;;;;;3.73;2.13;;;8.70;99.90;;;;;;5139007;27;20890;-67
2023/11/09 08:24:10;;;;;;;3.73;1.90;;;8.80;99.90;;;;;;5136982;27;20458;-69
2023/11/09 08:26:38;;;;;;;3.93;2.10;;;8.80;99.90;;;;;;5138744;27;20470;-67
2023/11/09 08:29:05;;;;;;;4.57;2.20;;;8.80;99.90;;;;;;5138620;27;20454;-62
2023/11/09 08:31:33;;;;;;;4.80;2.50;;;8.90;99.90;;;;;;5137827;27;20481;-66
2023/11/09 08:34:01;;;;;;;3.40;2.60;;;8.90;99.90;;;;;;5137495;27;20462;-66
2023/11/09 08:36:29;;;;;;;4.23;2.10;;;8.90;99.90;;;;;;5137256;27;20465;-66
2023/11/09 08:38:57;;;;;;;3.40;2.30;;;8.90;99.90;;;;;;5137355;27;20546;-66
2023/11/09 08:41:26;;;;;;;4.03;2.20;;;9.00;99.90;;;;;;5137137;28;20466;-66
2023/11/09 08:43:54;;;;;;;2.80;2.10;;;8.90;99.90;;;;;;5138259;27;20454;-66
2023/11/09 08:46:22;;;;;;;2.70;1.80;;;8.90;99.90;;;;;;5139324;28;20512;-63
2023/11/09 08:48:49;;;;;;;3.67;2.27;;;8.90;99.90;;;;;;5138243;28;20455;-66
2023/11/09 08:51:16;;;;;;;5.13;2.37;;;8.90;99.90;;;;;;5138678;28;20464;-66
2023/11/09 08:53:44;;;;;;;3.37;2.00;;;8.90;99.90;;;;;;5138507;28;20902;-67
2023/11/09 08:56:11;;;;;;;2.57;1.67;;;8.80;99.90;;;;;;5138238;27;20465;-64
2023/11/09 08:58:41;;;;;;;2.70;2.17;;;8.80;99.90;;;;;;5137898;28;20490;-67
2023/11/09 09:01:16;;;;;;;2.57;2.00;;;8.80;99.90;;;;;;5138759;28;20561;-67
2023/11/09 09:03:45;;;;;;;3.50;2.40;;;8.80;99.90;;;;;;5138473;27;20458;-65
2023/11/09 09:06:13;;;;;;;4.10;2.40;;;8.80;99.90;;;;;;5137835;28;20454;-66
2023/11/09 09:08:40;;;;;;;2.50;1.80;;;8.90;99.90;;;;;;5138525;28;20848;-67
2023/11/09 09:11:07;;;;;;;3.03;2.33;;;8.90;99.90;;;;;;5137479;27;20486;-67
2023/11/09 09:13:35;;;;;;;2.43;1.70;;;8.90;99.90;;;;;;5138462;28;20459;-70
2023/11/09 09:16:06;;;;;;;3.07;1.97;;;8.90;99.90;;;;;;5138495;28;20883;-67
2023/11/09 09:18:33;;;;;;;2.90;2.20;;;8.80;99.90;;;;;;5138248;28;20465;-67
2023/11/09 09:21:00;;;;;;;2.87;1.80;;;8.90;99.90;;;;;;5138229;28;20458;-67
2023/11/09 09:23:28;;;;;;;3.63;2.90;;;8.90;99.90;;;;;;5138594;28;20440;-67
2023/11/09 09:25:55;;;;;;;6.60;4.47;;;8.90;99.90;;;;;;5137443;28;20486;-68
2023/11/09 09:28:22;;;;;;;3.33;2.47;;;8.90;99.90;;;;;;5138482;27;20458;-67
2023/11/09 09:30:50;;;;;;;4.70;2.50;;;8.90;99.90;;;;;;5142955;27;20459;-70
2023/11/09 09:33:19;;;;;;;9.63;3.80;;;8.80;99.90;;;;;;5141430;27;20458;-67
2023/11/09 09:35:47;;;;;;;7.57;3.10;;;8.80;99.90;;;;;;5141656;27;20458;-68
2023/11/09 09:38:15;;;;;;;5.43;2.80;;;8.70;99.90;;;;;;5141035;27;20559;-69
2023/11/09 09:40:43;;;;;;;10.37;4.37;;;8.70;99.90;;;;;;5141276;27;20525;-68
2023/11/09 09:43:12;;;;;;;6.70;4.47;;;8.70;99.90;;;;;;5141360;27;20570;-68
2023/11/09 09:45:41;;;;;;;8.53;4.10;;;8.70;99.90;;;;;;5141464;27;20493;-68
2023/11/09 09:48:09;;;;;;;7.00;3.73;;;8.70;99.90;;;;;;5141097;27;20934;-67
2023/11/09 09:50:38;;;;;;;11.50;3.33;;;8.70;99.90;;;;;;5141370;27;20461;-68
2023/11/09 09:53:08;;;;;;;7.50;3.63;;;8.70;99.90;;;;;;5141015;27;20459;-67
2023/11/09 09:55:37;;;;;;;7.90;3.60;;;8.80;99.90;;;;;;5141275;27;20458;-67
2023/11/09 09:58:05;;;;;;;6.50;4.30;;;8.80;99.90;;;;;;5141107;27;20486;-68
2023/11/09 10:00:33;;;;;;;5.13;3.87;;;8.90;99.90;;;;;;5140417;27;20490;-67
2023/11/09 10:03:02;;;;;;;9.03;3.90;;;9.00;99.90;;;;;;5140789;27;20553;-67
2023/11/09 10:05:33;;;;;;;8.30;4.10;;;9.00;99.90;;;;;;5141263;27;20461;-67
2023/11/09 10:08:10;;;;;;;7.77;4.00;;;9.10;99.90;;;;;;5140768;27;20455;-67
2023/11/09 10:10:39;;;;;;;8.60;4.50;;;9.10;99.90;;;;;;5140059;27;20545;-66
2023/11/09 10:13:10;;;;;;;5.93;3.90;;;9.20;99.90;;;;;;5139162;27;20489;-66
2023/11/09 10:15:38;;;;;;;8.30;3.50;;;9.20;99.90;;;;;;5140551;27;20440;-66
2023/11/09 10:18:06;;;;;;;8.20;4.07;;;9.30;99.90;;;;;;5138874;27;20455;-65
2023/11/09 10:20:34;;;;;;;5.30;3.20;;;9.30;99.90;;;;;;5139828;27;20569;-66
2023/11/09 10:23:06;;;;;;;6.60;3.27;;;9.30;99.90;;;;;;5140323;27;20466;-66
2023/11/09 10:25:36;;;;;;;8.63;3.13;;;9.30;99.90;;;;;;5139872;27;20557;-66
2023/11/09 10:28:07;;;;;;;6.07;2.90;;;9.30;99.90;;;;;;5139770;27;20465;-66
2023/11/09 10:30:37;;;;;;;10.33;3.73;;;9.30;99.90;;;;;;5140062;27;20489;-65
2023/11/09 10:33:07;;;;;;;9.50;3.93;;;9.40;99.90;;;;;;5140399;27;20527;-66
2023/11/09 10:35:35;;;;;;;8.70;4.13;;;9.40;99.90;;;;;;5140355;27;20446;-65
2023/11/09 10:38:04;;;;;;;8.40;3.70;;;9.50;99.90;;;;;;5140286;27;20479;-65
2023/11/09 10:40:33;;;;;;;7.40;3.80;;;9.50;99.90;;;;;;5139243;27;20529;-65
2023/11/09 10:43:01;;;;;;;16.27;4.40;;;9.40;99.90;;;;;;5140189;27;20458;-64
2023/11/09 10:45:30;;;;;;;10.40;4.90;;;9.40;99.90;;;;;;5140396;27;20461;-65
2023/11/09 10:48:00;;;;;;;8.33;4.43;;;9.40;99.90;;;;;;5140324;27;20459;-64
2023/11/09 10:50:28;;;;;;;8.67;5.10;;;9.40;99.90;;;;;;5139697;27;20462;-64
2023/11/09 10:52:57;;;;;;;9.67;4.07;;;9.50;99.90;;;;;;5140241;27;20459;-64
2023/11/09 10:55:25;;;;;;;9.33;4.00;;;9.50;99.90;;;;;;5120298;27;20509;-63
2023/11/09 10:57:54;;;;;;;11.40;4.47;;;9.60;99.90;;;;;;5139788;27;20450;-64
2023/11/09 11:00:34;;;;;;;6.17;3.50;;;9.60;99.90;;;;;;5139366;27;20490;-63
2023/11/09 11:03:08;;;;;;;8.13;3.50;;;9.60;99.90;;;;;;5139908;27;20465;-63
2023/11/09 11:05:41;;;;;;;8.90;3.50;;;9.70;99.90;;;;;;5140102;27;20760;-65
2023/11/09 11:08:15;;;;;;;7.60;4.07;;;9.70;99.90;;;;;;5138926;27;20848;-64
2023/11/09 11:10:51;;;;;;;8.47;3.43;;;9.60;99.90;;;;;;5138433;27;20868;-63
2023/11/09 11:13:20;;;;;;;8.93;4.20;;;9.60;99.90;;;;;;5139610;27;20462;-64
2023/11/09 11:16:26;;;;;;;10.20;4.07;;;9.70;99.90;;;;;;5139405;27;20430;-64
2023/11/09 11:19:18;;;;;;;11.90;4.97;;;9.70;99.90;;;;;;5139380;27;20848;-63
2023/11/09 11:21:58;;;;;;;13.57;4.80;;;9.80;99.90;;;;;;5139020;27;20503;-63
2023/11/09 11:25:02;;;;;;;10.30;4.83;;;9.90;99.90;;;;;;5138987;27;20458;-63
2023/11/09 11:27:46;;;;;;;9.27;3.60;;;9.90;99.90;;;;;;5139664;27;20744;-63
2023/11/09 11:30:25;;;;;;;8.03;3.53;;;9.90;99.90;;;;;;5138806;27;20753;-64
2023/11/09 11:32:54;;;;;;;11.17;4.47;;;9.90;99.90;;;;;;5137085;27;20454;-63
2023/11/09 11:35:33;;;;;;;11.43;3.90;;;9.90;99.90;;;;;;5137612;27;20458;-64
2023/11/09 11:38:05;;;;;;;9.23;3.73;;;9.90;99.90;;;;;;5138271;27;20525;-64
2023/11/09 11:40:39;;;;;;;10.70;4.00;;;9.90;99.90;;;;;;5138216;27;20490;-64
2023/11/09 11:43:06;;;;;;;9.57;4.03;;;10.00;99.90;;;;;;5138480;27;20458;-63
2023/11/09 11:45:36;;;;;;;7.30;3.30;;;10.00;99.90;;;;;;5138312;27;20474;-63
2023/11/09 11:48:12;;;;;;;14.43;4.17;;;10.00;99.90;;;;;;5138906;27;20461;-63
2023/11/09 11:50:40;;;;;;;11.50;3.70;;;10.20;99.90;;;;;;5138879;27;20503;-63
2023/11/09 11:53:12;;;;;;;8.97;3.80;;;10.20;99.90;;;;;;5138448;27;20462;-63
2023/11/09 11:55:39;;;;;;;7.87;3.40;;;10.30;99.90;;;;;;5138913;27;20958;-64
2023/11/09 11:58:07;;;;;;;7.03;3.30;;;10.40;99.90;;;;;;5137882;27;20455;-63
2023/11/09 12:00:40;;;;;;;7.97;3.13;;;10.50;99.90;;;;;;5138062;27;20533;-63
2023/11/09 12:03:10;;;;;;;13.00;3.60;;;10.40;99.90;;;;;;5138667;27;20455;-63
2023/11/09 12:05:43;;;;;;;10.03;4.27;;;10.30;99.90;;;;;;5138826;27;20784;-63
2023/11/09 12:08:12;;;;;;;10.97;5.07;;;10.20;99.90;;;;;;5138862;27;20463;-63
2023/11/09 12:10:40;;;;;;;6.23;3.20;;;10.10;99.90;;;;;;5137534;27;20459;-63
2023/11/09 12:13:08;;;;;;;9.73;3.50;;;10.00;99.90;;;;;;5138671;27;20497;-63
2023/11/09 12:15:37;;;;;;;10.10;4.00;;;10.00;99.90;;;;;;5138943;27;20458;-63
2023/11/09 12:18:06;;;;;;;7.30;3.67;;;9.90;99.90;;;;;;5138109;27;20459;-63
2023/11/09 12:20:34;;;;;;;9.03;3.73;;;10.00;99.90;;;;;;5136642;27;20543;-63
2023/11/09 12:23:06;;;;;;;9.00;4.50;;;10.10;99.90;;;;;;5138642;27;20467;-63
2023/11/09 12:25:49;;;;;;;12.57;3.70;;;10.20;99.90;;;;;;5138545;27;20458;-63
2023/11/09 12:28:16;;;;;;;8.17;3.70;;;10.20;99.90;;;;;;5137877;27;20457;-63
2023/11/09 12:30:46;;;;;;;9.73;4.30;;;10.30;99.90;;;;;;5136811;27;20533;-63
2023/11/09 12:33:14;;;;;;;12.73;4.90;;;10.30;99.90;;;;;;5138288;27;20471;-63
2023/11/09 12:35:54;;;;;;;10.50;5.57;;;10.30;99.90;;;;;;5138656;27;20451;-62
2023/11/09 12:38:21;;;;;;;16.93;9.63;;;10.40;99.90;;;;;;5118891;27;20755;-62
2023/11/09 12:40:49;;;;;;;9.90;4.60;;;10.30;99.90;;;;;;5137787;27;20517;-62
2023/11/09 12:43:17;;;;;;;11.50;5.67;;;10.30;99.90;;;;;;5138107;27;20459;-63
2023/11/09 12:45:59;;;;;;;9.60;4.57;;;10.30;99.90;;;;;;5137958;27;20450;-63
2023/11/09 12:48:36;;;;;;;11.00;4.90;;;10.30;99.90;;;;;;5137755;27;20461;-63
2023/11/09 12:51:05;;;;;;;14.37;4.67;;;10.20;99.90;;;;;;5138048;28;20879;-62
2023/11/09 12:53:35;;;;;;;11.10;4.50;;;10.20;99.90;;;;;;5137977;27;20943;-63
2023/11/09 12:56:03;;;;;;;14.77;6.70;;;10.30;99.90;;;;;;5138299;28;20458;-62
2023/11/09 12:58:34;;;;;;;13.47;5.50;;;10.40;99.90;;;;;;5137373;28;20459;-63
2023/11/09 13:01:03;;;;;;;10.33;5.90;;;10.30;99.90;;;;;;5117351;28;20556;-64
2023/11/09 13:03:33;;;;;;;17.03;6.70;;;10.30;99.90;;;;;;5136650;27;20861;-62
2023/11/09 13:06:08;;;;;;;14.10;6.73;;;10.30;99.90;;;;;;5140450;27;20512;-63
2023/11/09 13:08:36;;;;;;;32.30;16.17;;;10.30;99.90;;;;;;5140485;27;20454;-63
2023/11/09 13:11:04;;;;;;;18.37;8.87;;;10.30;99.90;;;;;;5140371;27;20511;-63
2023/11/09 13:13:34;;;;;;;14.33;6.50;;;10.40;99.90;;;;;;5139183;27;20458;-62
2023/11/09 13:16:12;;;;;;;11.33;3.97;;;10.40;99.90;;;;;;5140601;27;20458;-62